createdAt,value
2022-10-05T00:00:14.703Z,8.97
2022-10-05T00:02:43.152Z,8.95
2022-10-05T00:05:29.889Z,8.93
2022-10-05T00:08:03.209Z,8.93
2022-10-05T00:10:31.209Z,8.93
2022-10-05T00:12:58.432Z,8.92
2022-10-05T00:15:25.889Z,8.95
2022-10-05T00:18:00.438Z,8.93
2022-10-05T00:20:31.382Z,8.95
2022-10-05T00:23:01.333Z,8.97
2022-10-05T00:25:28.684Z,8.96
2022-10-05T00:27:58.174Z,8.97
2022-10-05T00:30:36.496Z,8.98
2022-10-05T00:33:04.028Z,9.02
2022-10-05T00:35:35.491Z,9.02
2022-10-05T00:38:05.147Z,9.05
2022-10-05T00:41:10.751Z,9.05
2022-10-05T00:44:22.755Z,9.05
2022-10-05T00:47:00.329Z,9.02
2022-10-05T00:49:36.552Z,8.98
2022-10-05T00:52:26.971Z,9.00
2022-10-05T00:55:10.340Z,9.05
2022-10-05T00:57:50.298Z,9.03
2022-10-05T01:00:20.580Z,9.04
2022-10-05T01:02:52.691Z,9.03
2022-10-05T01:05:39.902Z,9.04
2022-10-05T01:08:22.493Z,9.00
2022-10-05T01:11:21.612Z,9.01
2022-10-05T01:14:01.771Z,9.00
2022-10-05T01:16:47.761Z,9.02
2022-10-05T01:20:01.296Z,9.00
2022-10-05T01:22:28.457Z,8.98
2022-10-05T01:25:25.047Z,8.94
2022-10-05T01:28:06.610Z,8.93
2022-10-05T01:30:52.971Z,8.92
2022-10-05T01:33:34.529Z,8.89
2022-10-05T01:36:17.062Z,8.88
2022-10-05T01:38:52.327Z,8.87
2022-10-05T01:41:29.202Z,8.86
2022-10-05T01:44:05.934Z,8.84
2022-10-05T01:46:41.823Z,8.82
2022-10-05T01:49:36.781Z,8.82
2022-10-05T01:52:55.125Z,8.80
2022-10-05T01:58:43.857Z,8.77
2022-10-05T02:01:21.989Z,8.75
2022-10-05T02:04:35.618Z,8.71
2022-10-05T02:07:08.723Z,8.69
2022-10-05T02:09:43.720Z,8.72
2022-10-05T02:12:15.330Z,8.68
2022-10-05T02:14:44.269Z,8.65
2022-10-05T02:17:16.600Z,8.66
2022-10-05T02:19:47.701Z,8.65
2022-10-05T02:22:31.308Z,8.66
2022-10-05T02:25:01.805Z,8.64
2022-10-05T02:27:35.509Z,8.63
2022-10-05T02:30:06.368Z,8.62
2022-10-05T02:32:41.577Z,8.62
2022-10-05T02:35:14.868Z,8.60
2022-10-05T02:38:02.266Z,8.57
2022-10-05T02:40:39.635Z,8.54
2022-10-05T02:43:28.225Z,8.55
2022-10-05T02:46:11.240Z,8.50
2022-10-05T02:49:16.296Z,8.50
2022-10-05T02:52:17.464Z,8.46
2022-10-05T02:55:03.809Z,8.43
2022-10-05T02:57:32.532Z,8.39
2022-10-05T03:00:07.483Z,8.37
2022-10-05T03:02:46.856Z,8.35
2022-10-05T03:05:37.113Z,8.35
2022-10-05T03:08:16.056Z,8.33
2022-10-05T03:10:52.635Z,8.31
2022-10-05T03:13:19.828Z,8.27
2022-10-05T03:15:50.298Z,8.28
2022-10-05T03:18:35.835Z,8.26
2022-10-05T03:21:22.320Z,8.23
2022-10-05T03:24:11.059Z,8.25
2022-10-05T03:26:53.355Z,8.24
2022-10-05T03:29:41.260Z,8.26
2022-10-05T03:32:41.419Z,8.29
2022-10-05T03:35:12.094Z,8.31
2022-10-05T03:37:53.246Z,8.35
2022-10-05T03:40:58.158Z,8.41
2022-10-05T03:43:34.421Z,8.50
2022-10-05T03:46:28.477Z,8.62
2022-10-05T03:49:27.995Z,8.71
2022-10-05T03:52:19.710Z,8.86
2022-10-05T03:55:29.558Z,9.13
2022-10-05T03:58:00.059Z,9.66
2022-10-05T04:00:28.472Z,10.00
2022-10-05T04:03:10.407Z,10.31
2022-10-05T04:05:44.789Z,10.40
2022-10-05T04:08:18.472Z,10.40
2022-10-05T04:10:51.802Z,10.75
2022-10-05T04:13:23.314Z,11.48
2022-10-05T04:16:00.025Z,12.32
2022-10-05T04:18:39.833Z,13.22
2022-10-05T04:21:11.852Z,14.11
2022-10-05T04:23:53.717Z,14.88
2022-10-05T04:26:30.900Z,15.51
2022-10-05T04:29:03.896Z,15.88
2022-10-05T04:31:35.427Z,16.25
2022-10-05T04:34:12.010Z,16.56
2022-10-05T04:36:49.426Z,16.85
2022-10-05T04:39:56.900Z,16.65
2022-10-05T04:42:35.963Z,17.00
2022-10-05T04:45:11.743Z,17.37
2022-10-05T04:48:04.630Z,17.80
2022-10-05T04:50:49.998Z,17.28
2022-10-05T04:53:34.884Z,17.20
2022-10-05T04:56:02.632Z,17.42
2022-10-05T04:59:06.796Z,17.80
2022-10-05T05:01:46.092Z,18.36
2022-10-05T05:04:32.295Z,18.72
2022-10-05T05:07:37.423Z,18.20
2022-10-05T05:10:21.138Z,17.20
2022-10-05T05:12:48.534Z,16.39
2022-10-05T05:15:30.307Z,15.89
2022-10-05T05:18:33.183Z,15.42
2022-10-05T05:21:09.713Z,15.02
2022-10-05T05:23:50.696Z,14.65
2022-10-05T05:26:29.763Z,14.57
2022-10-05T05:29:14.995Z,14.57
2022-10-05T05:32:00.746Z,14.55
2022-10-05T05:34:58.966Z,14.53
2022-10-05T05:37:36.370Z,14.49
2022-10-05T05:40:18.200Z,14.44
2022-10-05T05:43:22.826Z,14.44
2022-10-05T05:45:59.588Z,14.40
2022-10-05T05:48:40.288Z,14.29
2022-10-05T05:51:47.347Z,14.23
2022-10-05T05:54:22.689Z,14.18
2022-10-05T05:57:14.148Z,14.06
2022-10-05T06:00:05.752Z,13.93
2022-10-05T06:02:53.542Z,13.94
2022-10-05T06:05:41.785Z,14.00
2022-10-05T06:08:39.514Z,14.02
2022-10-05T06:11:24.050Z,13.99
2022-10-05T06:13:55.920Z,13.88
2022-10-05T06:16:37.591Z,13.70
2022-10-05T06:19:10.531Z,13.54
2022-10-05T06:21:45.721Z,13.46
2022-10-05T06:24:17.282Z,13.51
2022-10-05T06:27:19.126Z,13.84
2022-10-05T06:29:50.147Z,14.13
2022-10-05T06:33:04.601Z,14.49
2022-10-05T06:35:55.499Z,14.85
2022-10-05T06:38:54.025Z,15.18
2022-10-05T06:41:41.648Z,15.38
2022-10-05T06:44:25.878Z,15.51
2022-10-05T06:47:02.471Z,15.60
2022-10-05T06:49:37.676Z,15.76
2022-10-05T06:52:27.212Z,15.89
2022-10-05T06:55:08.624Z,15.99
2022-10-05T06:58:03.085Z,16.10
2022-10-05T07:00:33.411Z,16.40
2022-10-05T07:03:22.265Z,16.82
2022-10-05T07:06:11.509Z,17.14
2022-10-05T07:09:05.205Z,17.43
2022-10-05T07:12:13.001Z,17.87
2022-10-05T07:14:59.224Z,18.12
2022-10-05T07:17:47.887Z,18.42
2022-10-05T07:20:29.563Z,18.51
2022-10-05T07:23:14.374Z,18.43
2022-10-05T07:26:06.490Z,18.42
2022-10-05T07:29:08.164Z,18.42
2022-10-05T07:31:44.135Z,18.26
2022-10-05T07:34:22.887Z,17.95
2022-10-05T07:37:20.772Z,17.67
2022-10-05T07:40:10.002Z,17.33
2022-10-05T07:42:56.489Z,17.19
2022-10-05T07:45:37.995Z,17.13
2022-10-05T07:48:42.653Z,17.08
2022-10-05T07:51:26.105Z,17.11
2022-10-05T07:54:10.910Z,17.09
2022-10-05T07:56:45.795Z,17.03
2022-10-05T07:59:28.665Z,16.98
2022-10-05T08:02:07.171Z,16.88
2022-10-05T08:05:06.427Z,16.81
2022-10-05T08:07:35.089Z,16.81
2022-10-05T08:10:31.856Z,16.77
2022-10-05T08:13:07.532Z,16.73
2022-10-05T08:15:43.338Z,16.74
2022-10-05T08:18:17.027Z,16.77
2022-10-05T08:20:55.174Z,16.81
2022-10-05T08:23:46.381Z,16.87
2022-10-05T08:26:16.738Z,16.98
2022-10-05T08:29:21.574Z,17.09
2022-10-05T08:31:55.343Z,17.19
2022-10-05T08:34:37.541Z,17.26
2022-10-05T08:37:19.058Z,17.37
2022-10-05T08:39:56.936Z,17.49
2022-10-05T08:42:37.521Z,17.66
2022-10-05T08:45:05.248Z,17.78
2022-10-05T08:47:36.382Z,17.87
2022-10-05T08:50:24.883Z,17.94
2022-10-05T08:53:07.453Z,17.93
2022-10-05T08:55:52.491Z,18.06
2022-10-05T08:58:26.656Z,18.24
2022-10-05T09:01:12.857Z,18.53
2022-10-05T09:04:10.796Z,18.67
2022-10-05T09:07:00.509Z,18.66
2022-10-05T09:09:42.272Z,18.80
2022-10-05T09:12:16.807Z,18.93
2022-10-05T09:15:01.294Z,19.04
2022-10-05T09:17:55.398Z,19.19
2022-10-05T09:20:37.817Z,19.30
2022-10-05T09:23:34.495Z,19.42
2022-10-05T09:26:42.828Z,19.53
2022-10-05T09:29:29.039Z,19.53
2022-10-05T09:32:33.919Z,19.61
2022-10-05T09:35:31.593Z,19.67
2022-10-05T09:38:17.639Z,19.63
2022-10-05T09:41:22.032Z,19.34
2022-10-05T09:44:27.884Z,19.04
2022-10-05T09:47:25.934Z,18.77
2022-10-05T09:50:07.963Z,18.82
2022-10-05T09:53:00.300Z,19.02
2022-10-05T09:55:27.483Z,19.21
2022-10-05T09:57:59.370Z,19.35
2022-10-05T10:00:59.493Z,19.37
2022-10-05T10:04:08.024Z,19.35
2022-10-05T10:06:51.385Z,19.21
2022-10-05T10:09:36.495Z,19.11
2022-10-05T10:12:19.390Z,19.07
2022-10-05T10:15:01.908Z,19.01
2022-10-05T10:18:01.970Z,18.93
2022-10-05T10:20:45.225Z,18.94
2022-10-05T10:23:50.705Z,18.99
2022-10-05T10:26:36.652Z,19.12
2022-10-05T10:29:48.156Z,19.22
2022-10-05T10:32:33.287Z,19.24
2022-10-05T10:35:21.858Z,19.22
2022-10-05T10:38:04.094Z,19.30
2022-10-05T10:40:37.198Z,19.32
2022-10-05T10:43:41.155Z,19.24
2022-10-05T10:46:17.345Z,19.16
2022-10-05T10:48:54.163Z,19.12
2022-10-05T10:51:44.415Z,19.01
2022-10-05T10:54:33.014Z,18.86
2022-10-05T10:57:12.341Z,18.85
2022-10-05T10:59:48.818Z,18.88
2022-10-05T11:02:25.018Z,18.80
2022-10-05T11:05:29.858Z,18.70
2022-10-05T11:08:22.522Z,18.68
2022-10-05T11:11:36.380Z,18.68
2022-10-05T11:14:22.478Z,18.73
2022-10-05T11:17:08.849Z,18.86
2022-10-05T11:20:03.173Z,18.87
2022-10-05T11:23:09.413Z,18.82
2022-10-05T11:25:44.415Z,18.66
2022-10-05T11:28:52.954Z,18.53
2022-10-05T11:31:54.359Z,18.50
2022-10-05T11:34:24.355Z,18.51
2022-10-05T11:37:24.134Z,18.51
2022-10-05T11:40:38.540Z,18.49
2022-10-05T11:43:35.160Z,18.53
2022-10-05T11:58:15.252Z,18.35
2022-10-05T12:18:13.576Z,17.93
2022-10-05T12:20:48.670Z,17.92
2022-10-05T12:23:24.686Z,17.94
2022-10-05T12:26:05.637Z,17.88
2022-10-05T12:28:39.680Z,17.89
2022-10-05T12:31:19.486Z,17.93
2022-10-05T12:34:01.963Z,17.99
2022-10-05T12:36:59.717Z,17.94
2022-10-05T12:39:47.815Z,17.93
2022-10-05T12:42:24.170Z,17.90
2022-10-05T12:45:07.387Z,17.81
2022-10-05T12:47:53.757Z,17.86
2022-10-05T12:50:33.434Z,17.83
2022-10-05T12:53:38.323Z,17.76
2022-10-05T12:56:21.584Z,17.77
2022-10-05T12:59:29.703Z,17.81
2022-10-05T13:02:00.215Z,17.77
2022-10-05T13:04:43.931Z,17.82
2022-10-05T13:07:23.428Z,17.89
2022-10-05T13:10:13.283Z,17.99
2022-10-05T13:12:55.753Z,18.04
2022-10-05T13:15:30.273Z,17.99
2022-10-05T13:18:22.553Z,17.91
2022-10-05T13:21:22.372Z,17.76
2022-10-05T13:23:57.142Z,17.68
2022-10-05T13:26:29.962Z,17.69
2022-10-05T13:29:11.698Z,17.70
2022-10-05T13:31:54.432Z,17.65
2022-10-05T13:34:27.635Z,17.63
2022-10-05T13:37:09.790Z,17.53
2022-10-05T13:39:58.710Z,17.35
2022-10-05T13:42:33.030Z,17.21
2022-10-05T13:45:04.633Z,17.07
2022-10-05T13:47:39.512Z,16.97
2022-10-05T13:50:28.532Z,16.84
2022-10-05T13:53:37.005Z,16.77
2022-10-05T13:56:07.266Z,16.73
2022-10-05T13:58:50.284Z,16.69
2022-10-05T14:01:26.630Z,16.58
2022-10-05T14:04:16.044Z,16.45
2022-10-05T14:06:43.944Z,16.32
2022-10-05T14:09:33.475Z,16.20
2022-10-05T14:12:03.989Z,16.09
2022-10-05T14:14:32.784Z,16.02
2022-10-05T14:17:06.065Z,15.95
2022-10-05T14:19:46.501Z,15.89
2022-10-05T14:22:16.913Z,15.83
2022-10-05T14:24:55.234Z,15.74
2022-10-05T14:27:28.519Z,15.67
2022-10-05T14:30:03.015Z,15.63
2022-10-05T14:32:32.664Z,15.56
2022-10-05T14:35:05.237Z,15.50
2022-10-05T14:37:43.522Z,15.46
2022-10-05T14:40:37.465Z,15.39
2022-10-05T14:43:13.909Z,15.39
2022-10-05T14:45:55.923Z,15.36
2022-10-05T14:48:24.060Z,15.33
2022-10-05T14:50:56.754Z,15.30
2022-10-05T14:53:26.245Z,15.27
2022-10-05T14:56:33.168Z,15.19
2022-10-05T14:59:06.065Z,15.11
2022-10-05T15:01:39.261Z,15.02
2022-10-05T15:04:20.614Z,14.93
2022-10-05T15:07:04.307Z,14.87
2022-10-05T15:10:01.584Z,14.80
2022-10-05T15:12:39.096Z,14.71
2022-10-05T15:15:28.482Z,14.62
2022-10-05T15:18:00.960Z,14.54
2022-10-05T15:21:00.974Z,14.47
2022-10-05T15:23:49.603Z,14.42
2022-10-05T15:26:22.881Z,14.37
2022-10-05T15:29:21.898Z,14.32
2022-10-05T15:31:58.459Z,14.25
2022-10-05T15:34:37.687Z,14.21
2022-10-05T15:37:28.026Z,14.15
2022-10-05T15:40:00.335Z,14.09
2022-10-05T15:42:38.401Z,14.00
2022-10-05T15:45:19.645Z,13.95
2022-10-05T15:48:20.534Z,13.88
2022-10-05T15:51:07.027Z,13.81
2022-10-05T15:53:42.920Z,13.79
2022-10-05T15:56:29.034Z,13.73
2022-10-05T15:59:11.302Z,13.72
2022-10-05T16:01:53.032Z,13.76
2022-10-05T16:04:25.355Z,13.80
2022-10-05T16:07:20.936Z,13.85
2022-10-05T16:09:56.837Z,13.93
2022-10-05T16:12:54.740Z,13.96
2022-10-05T16:15:42.810Z,14.00
2022-10-05T16:18:32.745Z,14.06
2022-10-05T16:21:04.348Z,14.07
2022-10-05T16:23:31.675Z,14.05
2022-10-05T16:26:24.929Z,14.07
2022-10-05T16:28:55.273Z,14.08
2022-10-05T16:31:37.791Z,14.11
2022-10-05T16:34:20.331Z,14.13
2022-10-05T16:37:05.837Z,14.16
2022-10-05T16:39:45.823Z,14.18
2022-10-05T16:42:46.544Z,14.17
2022-10-05T16:45:45.124Z,14.14
2022-10-05T16:48:25.344Z,14.13
2022-10-05T16:51:28.908Z,14.10
2022-10-05T16:54:18.294Z,14.08
2022-10-05T16:56:52.717Z,14.06
2022-10-05T16:59:59.082Z,14.01
2022-10-05T17:03:14.251Z,13.98
2022-10-05T17:05:51.335Z,13.94
2022-10-05T17:08:45.775Z,13.93
2022-10-05T17:11:34.864Z,13.93
2022-10-05T17:14:23.524Z,13.92
2022-10-05T17:17:17.290Z,13.93
2022-10-05T17:20:07.989Z,13.93
2022-10-05T17:22:53.294Z,13.95
2022-10-05T17:25:39.633Z,13.97
2022-10-05T17:28:23.831Z,13.92
2022-10-05T17:31:21.778Z,13.86
2022-10-05T17:34:11.328Z,13.85
2022-10-05T17:36:50.497Z,13.83
2022-10-05T17:39:23.428Z,13.82
2022-10-05T17:41:51.142Z,13.80
2022-10-05T17:44:21.704Z,13.78
2022-10-05T17:46:56.171Z,13.78
2022-10-05T17:50:08.367Z,13.76
2022-10-05T17:52:58.774Z,13.76
2022-10-05T17:55:31.735Z,13.75
2022-10-05T17:58:18.573Z,13.76
2022-10-05T18:01:04.967Z,13.73
2022-10-05T18:03:44.440Z,13.70
2022-10-05T18:06:24.366Z,13.67
2022-10-05T18:09:21.718Z,13.66
2022-10-05T18:11:56.083Z,13.63
2022-10-05T18:14:27.432Z,13.64
2022-10-05T18:16:57.897Z,13.62
2022-10-05T18:19:32.442Z,13.62
2022-10-05T18:22:25.342Z,13.61
2022-10-05T18:25:03.959Z,13.60
2022-10-05T18:28:00.485Z,13.60
2022-10-05T18:30:33.487Z,13.60
2022-10-05T18:33:09.677Z,13.59
2022-10-05T18:35:48.984Z,13.58
2022-10-05T18:38:33.004Z,13.57
2022-10-05T18:41:32.363Z,13.53
2022-10-05T18:44:39.524Z,13.49
2022-10-05T18:47:38.270Z,13.48
2022-10-05T18:50:05.562Z,13.46
2022-10-05T18:52:41.548Z,13.43
2022-10-05T18:55:19.259Z,13.38
2022-10-05T18:57:50.361Z,13.38
2022-10-05T19:00:22.778Z,13.37
2022-10-05T19:03:03.720Z,13.36
2022-10-05T19:05:56.579Z,13.34
2022-10-05T19:08:45.268Z,13.34
2022-10-05T19:11:25.893Z,13.32
2022-10-05T19:14:05.655Z,13.30
2022-10-05T19:16:54.801Z,13.29
2022-10-05T19:20:00.359Z,13.28
2022-10-05T19:23:05.360Z,13.25
2022-10-05T19:25:53.227Z,13.23
2022-10-05T19:28:26.352Z,13.20
2022-10-05T19:31:12.149Z,13.17
2022-10-05T19:34:02.465Z,13.14
2022-10-05T19:36:32.446Z,13.10
2022-10-05T19:39:38.353Z,13.05
2022-10-05T19:42:24.806Z,12.99
2022-10-05T19:45:10.383Z,12.94
2022-10-05T19:47:41.381Z,12.92
2022-10-05T19:50:25.335Z,12.90
2022-10-05T19:53:21.060Z,12.83
2022-10-05T19:55:51.013Z,12.82
2022-10-05T19:58:24.799Z,12.80
2022-10-05T20:00:58.968Z,12.77
2022-10-05T20:03:29.256Z,12.78
2022-10-05T20:05:58.481Z,12.75
2022-10-05T20:08:28.589Z,12.74
2022-10-05T20:11:14.243Z,12.72
2022-10-05T20:13:52.283Z,12.67
2022-10-05T20:19:52.015Z,12.61
2022-10-05T20:22:28.373Z,12.56
2022-10-05T20:24:57.955Z,12.53
2022-10-05T20:27:40.005Z,12.52
2022-10-05T20:30:08.856Z,12.50
2022-10-05T20:32:36.417Z,12.50
2022-10-05T20:35:03.955Z,12.47
2022-10-05T20:37:31.194Z,12.44
2022-10-05T20:39:58.971Z,12.41
2022-10-05T20:42:26.737Z,12.38
2022-10-05T20:44:56.820Z,12.32
2022-10-05T20:47:25.312Z,12.29
2022-10-05T20:49:54.692Z,12.26
2022-10-05T20:52:23.188Z,12.23
2022-10-05T20:54:53.870Z,12.19
2022-10-05T20:57:21.341Z,12.17
2022-10-05T20:59:48.828Z,12.15
2022-10-05T21:02:15.966Z,12.16
2022-10-05T21:04:47.546Z,12.15
2022-10-05T21:07:16.396Z,12.15
2022-10-05T21:09:44.773Z,12.11
2022-10-05T21:12:12.141Z,12.07
2022-10-05T21:14:40.597Z,12.08
2022-10-05T21:17:12.510Z,12.05
2022-10-05T21:19:40.451Z,12.04
2022-10-05T21:22:09.629Z,12.02
2022-10-05T21:24:38.064Z,11.97
2022-10-05T21:27:05.773Z,11.93
2022-10-05T21:29:34.434Z,11.92
2022-10-05T21:32:02.952Z,11.92
2022-10-05T21:34:30.347Z,11.90
2022-10-05T21:36:57.665Z,11.93
2022-10-05T21:39:25.635Z,11.93
2022-10-05T21:41:52.996Z,11.96
2022-10-05T21:44:20.487Z,11.96
2022-10-05T21:46:49.366Z,11.98
2022-10-05T21:49:18.918Z,11.98
2022-10-05T21:51:47.396Z,12.02
2022-10-05T21:54:17.542Z,12.03
2022-10-05T21:56:49.556Z,12.01
2022-10-05T21:59:19.411Z,12.01
2022-10-05T22:01:46.954Z,12.00
2022-10-05T22:04:15.121Z,11.98
2022-10-05T22:06:42.636Z,11.96
2022-10-05T22:09:09.946Z,11.94
2022-10-05T22:11:38.134Z,11.94
2022-10-05T22:14:05.366Z,11.94
2022-10-05T22:16:43.207Z,11.92
2022-10-05T22:19:14.916Z,11.90
2022-10-05T22:21:42.818Z,11.89
2022-10-05T22:24:11.738Z,11.90
2022-10-05T22:26:41.079Z,11.92
2022-10-05T22:29:09.703Z,11.94
2022-10-05T22:31:37.258Z,11.98
2022-10-05T22:34:05.819Z,11.99
2022-10-05T22:36:37.330Z,11.99
2022-10-05T22:39:09.632Z,12.01
2022-10-05T22:41:36.856Z,12.02
2022-10-05T22:44:04.360Z,12.05
2022-10-05T22:46:33.238Z,12.07
2022-10-05T22:49:00.465Z,12.09
2022-10-05T22:51:27.857Z,12.13
2022-10-05T22:53:55.035Z,12.14
2022-10-05T22:56:22.318Z,12.17
2022-10-05T22:58:51.061Z,12.20
2022-10-05T23:01:19.767Z,12.22
2022-10-05T23:03:47.197Z,12.24
2022-10-05T23:06:19.674Z,12.26
2022-10-05T23:08:47.748Z,12.29
2022-10-05T23:11:18.500Z,12.29
2022-10-05T23:13:45.735Z,12.32
2022-10-05T23:16:23.456Z,12.33
2022-10-05T23:18:53.985Z,12.31
2022-10-05T23:21:22.817Z,12.33
2022-10-05T23:23:53.054Z,12.32
2022-10-05T23:26:24.812Z,12.31
2022-10-05T23:28:52.255Z,12.29
2022-10-05T23:31:22.282Z,12.29
2022-10-05T23:33:50.035Z,12.26
2022-10-05T23:36:22.143Z,12.24
2022-10-05T23:38:52.376Z,12.20
2022-10-05T23:41:22.191Z,12.17
2022-10-05T23:43:49.792Z,12.14
2022-10-05T23:46:18.019Z,12.12
2022-10-05T23:48:45.265Z,12.07
2022-10-05T23:51:13.925Z,12.03
2022-10-05T23:53:43.261Z,12.03
2022-10-05T23:56:10.482Z,12.03
2022-10-05T23:58:37.852Z,12.04
